Weather History for Caribou, ME

Change the Weather History Date:

Wednesday, November 27, 2013

  Actual Average Record
Temperature  
Mean Temperature 40 °F 26 °F  
Max Temperature 53 °F 33 °F 59 °F (1999)
Min Temperature 27 °F 20 °F -3 °F (1978)
Degree Days  
Heating Degree Days 25 38  
Month to date heating degree days 859 887  
Since 1 July heating degree days 1815 2027  
Cooling Degree Days 0 0  
Month to date cooling degree days 0 0  
Year to date cooling degree days 192 180  
Moisture  
Dew Point 37 °F    
Average Humidity 91    
Maximum Humidity 100    
Minimum Humidity 81    
Precipitation  
Precipitation 1.81 in 0.12 in 1.81 in (2013)
Month to date precipitation 3.92 3.28  
Year to date precipitation 46.49 34.87  
Snow  
Snow 2.00 in 0.50 in 9.00 in (1975)
Month to date snowfall 8.2 8.9  
Since 1 July snowfall 9.2 10.6  
Since 1 September snowfall 9.2 10.6  
Snow Depth 3.00 in    
Sea Level Pressure  
Sea Level Pressure 29.59 in    
Wind  
Wind Speed 10 mph (SE)    
Max Wind Speed 22 mph    
Max Gust Speed 28 mph    
Visibility 4 miles    
Events Fog , Rain , Snow    
T = Trace of Precipitation, MM = Missing Value Source: NWS Daily Summary

Daily Weather History Graph

Daily Weather History Graph

Search for Another Location

Airport:

Trip Planner

Search our weather history database for the weather conditions in past years. The results will help you decide how hot, cold, wet, or windy it might be!

Date:

Astronomy

Nov. 27, 2013 Rise Set
Actual Time 6:51 AM EST 3:47 PM EST
Civil Twilight 6:17 AM EST 4:21 PM EST
Nautical Twilight 5:39 AM EST 4:59 PM EST
Astronomical Twilight 5:03 AM EST 5:35 PM EST
Moon 12:29 AM EST (11/27) 12:41 PM EST (11/27)
Length of Visible Light 10h 03m
Length of Day
8h 55m
Waning Crescent, 32% of the Moon is Illuminated
Nov 27
Waning Crescent
Dec 2
New
Dec 9
First Quarter
Dec 17
Full
Dec 25
Last Quarter

Hourly Weather History & Observations

Time (EST) Temp. Windchill Dew Point Humidity Pressure Visibility Wind Dir Wind Speed Gust Speed Precip Events Conditions
12:54 AM 27.0 °F 20.5 °F 21.9 °F 81% 30.19 in 4.0 mi ESE 5.8 mph - 0.00 in Snow Light Snow
1:18 AM 27.0 °F 20.5 °F 23.0 °F 85% 30.15 in 2.5 mi ESE 5.8 mph - 0.00 in Snow Light Snow
1:29 AM 27.0 °F 20.5 °F 23.0 °F 85% 30.16 in 3.0 mi ESE 5.8 mph - 0.00 in Snow Light Snow
1:39 AM 27.0 °F 19.5 °F 23.0 °F 85% 30.15 in 2.5 mi ESE 6.9 mph - 0.00 in Snow Light Snow
1:46 AM 27.0 °F 20.5 °F 23.0 °F 85% 30.15 in 2.5 mi ESE 5.8 mph - 0.01 in Snow Light Snow
1:54 AM 27.0 °F 19.5 °F 23.0 °F 85% 30.18 in 2.0 mi ESE 6.9 mph - 0.01 in Snow Light Snow
2:17 AM 27.0 °F 21.6 °F 24.1 °F 89% 30.12 in 3.0 mi ESE 4.6 mph - 0.00 in Snow Light Snow
2:45 AM 27.0 °F 20.5 °F 25.0 °F 92% 30.11 in 3.0 mi ESE 5.8 mph - 0.00 in Snow Light Snow
2:52 AM 26.6 °F 20.0 °F 24.8 °F 93% 30.11 in 2.0 mi East 5.8 mph - 0.01 in Snow Light Snow
2:54 AM 27.0 °F 20.5 °F 24.1 °F 89% 30.14 in 2.0 mi ESE 5.8 mph - 0.01 in Snow Light Snow
3:01 AM 27.0 °F 20.5 °F 24.1 °F 89% 30.10 in 1.8 mi ESE 5.8 mph - 0.00 in Snow Light Snow
3:14 AM 27.0 °F 21.6 °F 24.1 °F 89% 30.09 in 1.2 mi ESE 4.6 mph - 0.00 in Snow Light Snow
3:54 AM 27.0 °F 20.5 °F 25.0 °F 92% 30.11 in 0.8 mi East 5.8 mph - 0.04 in Snow Light Snow
4:15 AM 27.0 °F 19.5 °F 25.0 °F 92% 30.06 in 1.0 mi East 6.9 mph - 0.02 in Snow Light Snow
4:19 AM 27.0 °F 19.5 °F 25.0 °F 92% 30.05 in 0.8 mi East 6.9 mph - 0.03 in Snow Light Snow
4:29 AM 27.0 °F 20.5 °F 25.0 °F 92% 30.05 in 0.8 mi East 5.8 mph - 0.05 in Snow Light Snow
4:54 AM 27.0 °F 19.5 °F 25.0 °F 92% 30.06 in 0.8 mi East 6.9 mph - 0.08 in Snow Light Snow
5:27 AM 27.0 °F 18.7 °F 26.1 °F 96% 29.99 in 1.0 mi East 8.1 mph - 0.05 in Snow Light Snow
5:38 AM 28.0 °F 20.8 °F 26.1 °F 92% 29.98 in 2.0 mi ENE 6.9 mph - 0.06 in Snow Light Snow
5:47 AM 28.0 °F 20.8 °F 26.1 °F 92% 29.98 in 2.5 mi East 6.9 mph - 0.06 in Snow Light Snow
5:54 AM 28.0 °F 20.8 °F 26.1 °F 92% 30.01 in 4.0 mi East 6.9 mph - 0.07 in Snow Light Snow
6:26 AM 30.0 °F 22.4 °F 28.0 °F 92% 29.95 in 5.0 mi East 8.1 mph - 0.04 in Rain Light Freezing Rain
6:54 AM 30.9 °F 22.8 °F 28.9 °F 92% 29.96 in 5.0 mi East 9.2 mph - 0.08 in Rain Light Freezing Rain
7:21 AM 32.0 °F 24.2 °F 30.0 °F 92% 29.91 in 4.0 mi East 9.2 mph - 0.07 in Rain Light Freezing Rain
7:35 AM 32.0 °F 25.6 °F 30.9 °F 96% 29.90 in 4.0 mi East 6.9 mph - 0.11 in   Overcast
7:54 AM 32.0 °F 25.6 °F 30.9 °F 96% 29.90 in 5.0 mi East 6.9 mph - 0.15 in   Overcast
8:42 AM 33.1 °F 26.1 °F 32.0 °F 96% 29.78 in 7.0 mi East 8.1 mph - 0.10 in Rain Light Rain
8:52 AM 33.8 °F 27.0 °F 32.0 °F 93% 29.77 in 5.0 mi East 8.1 mph - 0.11 in Rain Light Rain
8:54 AM 34.0 °F 28.0 °F 32.0 °F 92% 29.81 in 5.0 mi East 6.9 mph - 0.11 in Rain Light Rain
9:02 AM 34.0 °F 26.6 °F 32.0 °F 92% 29.76 in 4.0 mi East 9.2 mph - 0.02 in Rain Rain
9:41 AM 35.1 °F 26.9 °F 33.1 °F 92% 29.71 in 5.0 mi East 11.5 mph - 0.08 in Rain Rain
9:54 AM 36.0 °F 28.5 °F 34.0 °F 93% 29.71 in 7.0 mi East 10.4 mph - 0.08 in Rain Light Rain
10:54 AM 37.9 °F 30.5 °F 36.0 °F 93% 29.60 in 8.0 mi ESE 11.5 mph - 0.07 in Rain Light Rain
11:54 AM 42.1 °F 33.3 °F 39.9 °F 92% 29.49 in 3.0 mi SE 19.6 mph 28.8 mph 0.12 in Rain Rain
12:54 PM 43.0 °F 36.0 °F 41.0 °F 93% 29.44 in 5.0 mi SE 13.8 mph - 0.08 in Rain Light Rain
1:08 PM 44.1 °F 36.8 °F 42.1 °F 93% 29.40 in 3.0 mi SSE 16.1 mph 24.2 mph 0.02 in Rain Rain
1:32 PM 45.0 °F 38.2 °F 43.0 °F 93% 29.37 in 2.5 mi SE 15.0 mph 21.9 mph 0.07 in Rain Rain
1:39 PM 45.0 °F 37.9 °F 43.0 °F 93% 29.36 in 2.5 mi SE 16.1 mph 25.3 mph 0.09 in Rain Rain
1:46 PM 45.0 °F 38.5 °F 43.0 °F 93% 29.35 in 3.0 mi SE 13.8 mph - 0.10 in Rain Light Rain
1:54 PM 45.0 °F 38.9 °F 43.0 °F 93% 29.37 in 5.0 mi SE 12.7 mph 21.9 mph 0.11 in Rain Light Rain
2:54 PM 46.9 °F - 46.0 °F 97% 29.33 in 3.0 mi SE 12.7 mph - 0.07 in Rain Rain
3:54 PM 48.9 °F - 46.9 °F 93% 29.28 in 5.0 mi SE 13.8 mph - 0.11 in Rain Rain
4:54 PM 50.0 °F - 48.9 °F 96% 29.25 in 8.0 mi SSE 12.7 mph - 0.06 in Rain Light Rain
5:54 PM 53.1 °F - 51.1 °F 93% 29.21 in 10.0 mi South 12.7 mph 20.7 mph 0.02 in Rain Light Rain
6:46 PM 52.0 °F - 52.0 °F 100% 29.14 in 6.0 mi SE 6.9 mph - 0.04 in Rain Light Rain
6:54 PM 52.0 °F - 51.1 °F 97% 29.16 in 6.0 mi SE 6.9 mph - 0.05 in Rain Light Rain
7:17 PM 52.0 °F - 52.0 °F 100% 29.12 in 5.0 mi South 4.6 mph - 0.02 in Rain Light Rain
7:26 PM 52.0 °F - 51.1 °F 97% 29.12 in 2.0 mi West 4.6 mph - 0.03 in Rain Rain
7:28 PM 51.1 °F - 51.1 °F 100% 29.12 in 1.2 mi West 4.6 mph - 0.03 in Rain Rain
7:33 PM 51.1 °F - 50.0 °F 96% 29.12 in 0.5 mi West 4.6 mph - 0.04 in Fog , Rain Rain
7:43 PM 52.0 °F - 50.0 °F 93% 29.12 in 1.5 mi WSW 9.2 mph - 0.07 in Rain Rain
7:49 PM 51.8 °F - 51.8 °F 100% 29.11 in 2.5 mi SW 8.1 mph - 0.09 in Rain Rain
7:54 PM 52.0 °F - 52.0 °F 100% 29.14 in 2.5 mi SW 6.9 mph - 0.11 in Rain Rain
8:06 PM 53.1 °F - 52.0 °F 96% 29.11 in 2.5 mi SSW 6.9 mph - 0.04 in Rain Rain
8:24 PM 52.0 °F - 52.0 °F 100% 29.09 in 4.0 mi SSW 4.6 mph - 0.07 in Rain Light Rain
8:36 PM 52.0 °F - 52.0 °F 100% 29.07 in 3.0 mi SSW 4.6 mph - 0.08 in Rain Light Rain
8:44 PM 52.0 °F - 51.1 °F 97% 29.07 in 1.8 mi SW 5.8 mph - 0.08 in Rain Light Rain
8:49 PM 51.8 °F - 50.0 °F 94% 29.08 in 1.2 mi West 9.2 mph - 0.08 in Rain Light Rain
8:54 PM 48.9 °F - 48.0 °F 97% 29.11 in 1.5 mi West 10.4 mph - 0.09 in Rain Light Rain
9:01 PM 46.9 °F - 46.0 °F 97% 29.08 in 2.0 mi West 9.2 mph - 0.00 in Rain Light Rain
9:11 PM 46.9 °F - 45.0 °F 93% 29.08 in 4.0 mi West 8.1 mph - 0.02 in Rain Rain
9:26 PM 46.0 °F 41.0 °F 44.1 °F 93% 29.09 in 4.0 mi West 10.4 mph 19.6 mph 0.05 in Rain Rain
9:34 PM 46.0 °F 40.2 °F 44.1 °F 93% 29.10 in 6.0 mi WSW 12.7 mph - 0.06 in Rain Light Rain
9:54 PM 43.0 °F 36.0 °F 42.1 °F 97% 29.13 in 6.0 mi West 13.8 mph 20.7 mph 0.08 in Rain Rain
10:54 PM 39.9 °F 34.5 °F 37.9 °F 93% 29.13 in 4.0 mi West 8.1 mph - 0.11 in Rain Rain
11:37 PM 37.9 °F 32.7 °F 36.0 °F 93% 29.13 in 8.0 mi WNW 6.9 mph 17.3 mph 0.08 in Rain Light Rain
11:54 PM 37.0 °F 29.3 °F 35.1 °F 93% 29.18 in 7.0 mi West 11.5 mph 18.4 mph 0.09 in Rain Light Rain